sensor_id;sensor_type;location;lat;lon;timestamp;temperature;humidity
13978;DHT22;7063;49.260;8.636;2022-10-31T13:45:51;22.10;93.80
13978;DHT22;7063;49.260;8.636;2022-10-31T13:48:31;19.00;99.90
13978;DHT22;7063;49.260;8.636;2022-10-31T13:51:02;19.20;99.90
13978;DHT22;7063;49.260;8.636;2022-10-31T13:58:34;19.80;99.90
13978;DHT22;7063;49.260;8.636;2022-10-31T14:01:15;20.00;99.90
13978;DHT22;7063;49.260;8.636;2022-10-31T14:03:43;20.00;99.90
13978;DHT22;7063;49.260;8.636;2022-10-31T14:06:10;19.90;99.90
13978;DHT22;7063;49.260;8.636;2022-10-31T14:08:40;19.70;99.90
13978;DHT22;7063;49.260;8.636;2022-10-31T14:11:07;19.50;99.90
13978;DHT22;7063;49.260;8.636;2022-10-31T14:13:41;19.50;99.90
13978;DHT22;7063;49.260;8.636;2022-10-31T14:18:58;19.40;99.90
13978;DHT22;7063;49.260;8.636;2022-10-31T14:23:51;19.20;99.90
13978;DHT22;7063;49.260;8.636;2022-10-31T14:28:52;18.90;1.00
13978;DHT22;7063;49.260;8.636;2022-10-31T14:31:38;18.70;1.00
13978;DHT22;7063;49.260;8.636;2022-10-31T14:34:39;18.50;1.00
13978;DHT22;7063;49.260;8.636;2022-10-31T14:41:05;18.50;1.00
13978;DHT22;7063;49.260;8.636;2022-10-31T14:43:09;18.20;9.20
13978;DHT22;7063;49.260;8.636;2022-10-31T14:51:23;17.90;35.00
13978;DHT22;7063;49.260;8.636;2022-10-31T14:53:55;18.00;43.40
13978;DHT22;7063;49.260;8.636;2022-10-31T14:56:30;17.90;55.50
13978;DHT22;7063;49.260;8.636;2022-10-31T14:58:58;17.80;76.10
13978;DHT22;7063;49.260;8.636;2022-10-31T15:01:29;17.60;91.80
13978;DHT22;7063;49.260;8.636;2022-10-31T15:04:19;17.60;97.60
13978;DHT22;7063;49.260;8.636;2022-10-31T15:06:48;17.60;99.20
13978;DHT22;7063;49.260;8.636;2022-10-31T15:09:32;17.50;94.70
13978;DHT22;7063;49.260;8.636;2022-10-31T15:11:59;17.50;99.90
13978;DHT22;7063;49.260;8.636;2022-10-31T15:14:31;17.40;99.10
13978;DHT22;7063;49.260;8.636;2022-10-31T15:16:58;17.40;98.20
13978;DHT22;7063;49.260;8.636;2022-10-31T15:19:25;17.40;99.90
13978;DHT22;7063;49.260;8.636;2022-10-31T15:21:53;17.40;99.90
13978;DHT22;7063;49.260;8.636;2022-10-31T15:24:20;17.30;99.90
13978;DHT22;7063;49.260;8.636;2022-10-31T15:26:51;17.40;99.90
13978;DHT22;7063;49.260;8.636;2022-10-31T15:29:23;17.30;99.90
13978;DHT22;7063;49.260;8.636;2022-10-31T15:32:00;17.30;99.90
13978;DHT22;7063;49.260;8.636;2022-10-31T15:34:40;17.30;99.90
13978;DHT22;7063;49.260;8.636;2022-10-31T15:37:17;17.20;99.90
13978;DHT22;7063;49.260;8.636;2022-10-31T15:39:44;17.10;99.90
13978;DHT22;7063;49.260;8.636;2022-10-31T15:47:45;16.90;99.90
13978;DHT22;7063;49.260;8.636;2022-10-31T15:50:21;16.90;99.90
13978;DHT22;7063;49.260;8.636;2022-10-31T15:52:49;16.80;99.90
13978;DHT22;7063;49.260;8.636;2022-10-31T15:57:46;16.80;99.90
13978;DHT22;7063;49.260;8.636;2022-10-31T16:00:29;16.70;99.90
13978;DHT22;7063;49.260;8.636;2022-10-31T16:03:23;16.70;99.90
13978;DHT22;7063;49.260;8.636;2022-10-31T16:05:54;16.60;99.90
13978;DHT22;7063;49.260;8.636;2022-10-31T16:08:33;16.60;99.90
13978;DHT22;7063;49.260;8.636;2022-10-31T16:13:33;16.50;99.90
13978;DHT22;7063;49.260;8.636;2022-10-31T16:16:11;16.40;99.90
13978;DHT22;7063;49.260;8.636;2022-10-31T16:18:39;16.40;99.90
13978;DHT22;7063;49.260;8.636;2022-10-31T16:21:06;16.50;99.90
13978;DHT22;7063;49.260;8.636;2022-10-31T16:23:32;16.40;99.90
13978;DHT22;7063;49.260;8.636;2022-10-31T16:25:58;16.30;99.90
13978;DHT22;7063;49.260;8.636;2022-10-31T16:28:26;16.40;99.90
